sensor_id;sensor_type;location;lat;lon;timestamp;pressure;altitude;pressure_sealevel;temperature;humidity
61337;BME280;47212;41.326;2.104;2023-02-05T11:20:30;102993.66;;;18.42;31.55
61337;BME280;47212;41.326;2.104;2023-02-05T11:26:05;102996.00;;;18.56;30.60
61337;BME280;47212;41.326;2.104;2023-02-05T11:31:30;103000.81;;;18.65;30.80
61337;BME280;47212;41.326;2.104;2023-02-05T11:36:36;102979.78;;;18.91;30.52
61337;BME280;47212;41.326;2.104;2023-02-05T11:41:41;102982.44;;;19.13;30.80
61337;BME280;47212;41.326;2.104;2023-02-05T11:46:50;102985.91;;;19.35;30.38
61337;BME280;47212;41.326;2.104;2023-02-05T11:51:58;102956.13;;;19.42;30.35
61337;BME280;47212;41.326;2.104;2023-02-05T12:07:39;102935.31;;;19.82;28.38
61337;BME280;47212;41.326;2.104;2023-02-05T12:12:55;102935.66;;;19.96;27.76
61337;BME280;47212;41.326;2.104;2023-02-05T12:23:34;102923.59;;;20.43;27.16
61337;BME280;47212;41.326;2.104;2023-02-05T12:29:07;102932.16;;;20.56;27.86
61337;BME280;47212;41.326;2.104;2023-02-05T12:49:22;102893.69;;;20.95;32.16
61337;BME280;47212;41.326;2.104;2023-02-05T12:55:19;102876.81;;;20.72;33.11
61337;BME280;47212;41.326;2.104;2023-02-05T13:00:48;102878.47;;;20.67;34.19
61337;BME280;47212;41.326;2.104;2023-02-05T13:05:55;102873.78;;;20.43;34.18
61337;BME280;47212;41.326;2.104;2023-02-05T13:11:05;102869.06;;;20.33;34.09
61337;BME280;47212;41.326;2.104;2023-02-05T13:16:12;102849.44;;;20.24;34.89
61337;BME280;47212;41.326;2.104;2023-02-05T13:21:18;102849.97;;;20.01;35.61
61337;BME280;47212;41.326;2.104;2023-02-05T13:26:44;102829.72;;;19.65;36.17
61337;BME280;47212;41.326;2.104;2023-02-05T13:32:08;102818.00;;;19.37;36.83
61337;BME280;47212;41.326;2.104;2023-02-05T13:37:57;102812.59;;;19.00;38.00
61337;BME280;47212;41.326;2.104;2023-02-05T13:55:19;102802.66;;;18.20;37.32
61337;BME280;47212;41.326;2.104;2023-02-05T14:00:15;102791.53;;;18.10;37.59
61337;BME280;47212;41.326;2.104;2023-02-05T14:05:33;102803.06;;;18.02;38.27
61337;BME280;47212;41.326;2.104;2023-02-05T14:10:40;102784.06;;;18.05;37.56
61337;BME280;47212;41.326;2.104;2023-02-05T14:15:44;102779.03;;;17.97;36.89
61337;BME280;47212;41.326;2.104;2023-02-05T14:20:46;102773.03;;;17.73;37.58
61337;BME280;47212;41.326;2.104;2023-02-05T14:26:05;102765.66;;;17.52;37.54
61337;BME280;47212;41.326;2.104;2023-02-05T14:31:46;102749.03;;;17.20;38.93
61337;BME280;47212;41.326;2.104;2023-02-05T14:36:49;102749.81;;;16.94;38.60
61337;BME280;47212;41.326;2.104;2023-02-05T14:41:54;102737.28;;;16.81;39.47
61337;BME280;47212;41.326;2.104;2023-02-05T15:13:37;102717.50;;;16.07;41.81
61337;BME280;47212;41.326;2.104;2023-02-05T15:18:42;102716.91;;;16.05;42.05
61337;BME280;47212;41.326;2.104;2023-02-05T15:23:50;102724.22;;;16.16;43.49
61337;BME280;47212;41.326;2.104;2023-02-05T15:29:02;102707.53;;;16.01;45.02
61337;BME280;47212;41.326;2.104;2023-02-05T15:34:27;102711.28;;;15.95;45.87
61337;BME280;47212;41.326;2.104;2023-02-05T15:39:46;102721.09;;;15.74;46.46
61337;BME280;47212;41.326;2.104;2023-02-05T15:44:51;102737.63;;;15.62;46.49
61337;BME280;47212;41.326;2.104;2023-02-05T15:49:56;102739.31;;;15.51;46.76
61337;BME280;47212;41.326;2.104;2023-02-05T15:55:10;102741.88;;;15.41;49.37
61337;BME280;47212;41.326;2.104;2023-02-05T16:00:21;102760.16;;;15.36;48.80
61337;BME280;47212;41.326;2.104;2023-02-05T16:05:25;102746.22;;;15.25;47.40
61337;BME280;47212;41.326;2.104;2023-02-05T16:10:31;102741.09;;;15.29;47.35
61337;BME280;47212;41.326;2.104;2023-02-05T16:20:50;102719.59;;;15.09;48.11
61337;BME280;47212;41.326;2.104;2023-02-05T16:25:55;102719.28;;;14.94;47.62
61337;BME280;47212;41.326;2.104;2023-02-05T16:31:17;102746.59;;;14.89;49.46
61337;BME280;47212;41.326;2.104;2023-02-05T16:36:47;102750.31;;;14.83;48.92
61337;BME280;47212;41.326;2.104;2023-02-05T16:47:16;102740.31;;;14.65;50.90
61337;BME280;47212;41.326;2.104;2023-02-05T16:57:30;102724.72;;;14.54;50.63
61337;BME280;47212;41.326;2.104;2023-02-05T17:02:35;102735.31;;;14.50;50.73
61337;BME280;47212;41.326;2.104;2023-02-05T17:07:42;102727.00;;;14.45;50.52
61337;BME280;47212;41.326;2.104;2023-02-05T17:12:57;102726.38;;;14.31;52.14
61337;BME280;47212;41.326;2.104;2023-02-05T17:18:24;102720.66;;;14.21;53.07
61337;BME280;47212;41.326;2.104;2023-02-05T17:23:27;102717.44;;;14.13;51.33
61337;BME280;47212;41.326;2.104;2023-02-05T17:28:36;102706.84;;;14.05;51.42
61337;BME280;47212;41.326;2.104;2023-02-05T17:33:48;102705.44;;;14.02;52.60
61337;BME280;47212;41.326;2.104;2023-02-05T17:38:54;102717.69;;;13.99;51.54
61337;BME280;47212;41.326;2.104;2023-02-05T17:43:58;102724.47;;;13.97;51.92
61337;BME280;47212;41.326;2.104;2023-02-05T17:49:03;102715.66;;;13.95;52.27
61337;BME280;47212;41.326;2.104;2023-02-05T17:54:17;102713.16;;;13.93;53.58
61337;BME280;47212;41.326;2.104;2023-02-05T17:59:21;102697.44;;;13.89;52.59
61337;BME280;47212;41.326;2.104;2023-02-05T18:04:23;102695.97;;;13.86;52.44
61337;BME280;47212;41.326;2.104;2023-02-05T18:09:25;102707.88;;;13.80;52.34
61337;BME280;47212;41.326;2.104;2023-02-05T18:14:27;102693.59;;;13.78;52.39
61337;BME280;47212;41.326;2.104;2023-02-05T18:19:29;102695.38;;;13.73;52.25
61337;BME280;47212;41.326;2.104;2023-02-05T18:24:31;102710.97;;;13.72;54.70
61337;BME280;47212;41.326;2.104;2023-02-05T18:29:37;102705.13;;;13.68;52.62
61337;BME280;47212;41.326;2.104;2023-02-05T18:34:39;102703.47;;;13.67;52.19
61337;BME280;47212;41.326;2.104;2023-02-05T18:39:42;102704.75;;;13.65;52.43
61337;BME280;47212;41.326;2.104;2023-02-05T18:44:44;102704.41;;;13.61;52.00
61337;BME280;47212;41.326;2.104;2023-02-05T18:49:46;102701.31;;;13.58;54.29
61337;BME280;47212;41.326;2.104;2023-02-05T18:54:48;102699.03;;;13.55;52.30
61337;BME280;47212;41.326;2.104;2023-02-05T18:59:51;102694.97;;;13.46;54.90
61337;BME280;47212;41.326;2.104;2023-02-05T19:04:55;102691.50;;;13.38;52.56
61337;BME280;47212;41.326;2.104;2023-02-05T19:09:57;102693.88;;;13.35;55.19
61337;BME280;47212;41.326;2.104;2023-02-05T19:15:03;102695.41;;;13.31;51.53
61337;BME280;47212;41.326;2.104;2023-02-05T19:20:05;102685.16;;;13.26;50.56
61337;BME280;47212;41.326;2.104;2023-02-05T19:25:07;102694.91;;;13.22;50.38
61337;BME280;47212;41.326;2.104;2023-02-05T19:30:12;102699.16;;;13.18;48.89
61337;BME280;47212;41.326;2.104;2023-02-05T19:35:15;102672.25;;;13.15;48.44
61337;BME280;47212;41.326;2.104;2023-02-05T19:40:17;102651.31;;;13.09;47.46
61337;BME280;47212;41.326;2.104;2023-02-05T19:50:47;102658.16;;;13.00;46.97
61337;BME280;47212;41.326;2.104;2023-02-05T19:55:49;102674.53;;;13.00;46.83
61337;BME280;47212;41.326;2.104;2023-02-05T20:00:51;102669.06;;;13.00;46.39
61337;BME280;47212;41.326;2.104;2023-02-05T20:05:53;102669.53;;;12.97;46.16
61337;BME280;47212;41.326;2.104;2023-02-05T20:10:56;102667.13;;;12.89;46.00
61337;BME280;47212;41.326;2.104;2023-02-05T20:16:16;102665.09;;;12.84;46.04
61337;BME280;47212;41.326;2.104;2023-02-05T20:21:19;102655.09;;;12.78;46.61
61337;BME280;47212;41.326;2.104;2023-02-05T20:26:21;102651.84;;;12.69;46.24
61337;BME280;47212;41.326;2.104;2023-02-05T20:31:27;102640.31;;;12.67;46.16
61337;BME280;47212;41.326;2.104;2023-02-05T20:36:54;102644.94;;;12.67;46.55
61337;BME280;47212;41.326;2.104;2023-02-05T20:41:58;102657.38;;;12.63;46.85
61337;BME280;47212;41.326;2.104;2023-02-05T20:47:03;102629.69;;;12.59;46.75
61337;BME280;47212;41.326;2.104;2023-02-05T20:52:08;102632.66;;;12.58;46.91
61337;BME280;47212;41.326;2.104;2023-02-05T20:57:10;102617.78;;;12.54;46.28
61337;BME280;47212;41.326;2.104;2023-02-05T21:02:14;102610.88;;;12.51;46.89
61337;BME280;47212;41.326;2.104;2023-02-05T21:07:17;102623.09;;;12.49;46.46
61337;BME280;47212;41.326;2.104;2023-02-05T21:12:19;102629.63;;;12.48;46.62
61337;BME280;47212;41.326;2.104;2023-02-05T21:17:23;102621.91;;;12.44;46.93
61337;BME280;47212;41.326;2.104;2023-02-05T21:22:25;102622.72;;;12.45;47.00
61337;BME280;47212;41.326;2.104;2023-02-05T21:27:29;102621.91;;;12.44;46.64
61337;BME280;47212;41.326;2.104;2023-02-05T21:32:37;102621.66;;;12.46;46.65
61337;BME280;47212;41.326;2.104;2023-02-05T21:37:39;102633.41;;;12.47;46.08
61337;BME280;47212;41.326;2.104;2023-02-05T21:42:43;102653.38;;;12.47;46.75
61337;BME280;47212;41.326;2.104;2023-02-05T21:47:45;102650.50;;;12.42;46.93
61337;BME280;47212;41.326;2.104;2023-02-05T21:52:48;102639.28;;;12.32;46.29
61337;BME280;47212;41.326;2.104;2023-02-05T21:57:51;102635.03;;;12.18;47.09
61337;BME280;47212;41.326;2.104;2023-02-05T22:02:55;102661.38;;;12.05;47.12
61337;BME280;47212;41.326;2.104;2023-02-05T22:07:58;102654.38;;;11.91;47.03
61337;BME280;47212;41.326;2.104;2023-02-05T22:13:01;102657.03;;;11.73;47.41
61337;BME280;47212;41.326;2.104;2023-02-05T22:18:05;102660.09;;;11.58;47.43
61337;BME280;47212;41.326;2.104;2023-02-05T22:23:10;102658.75;;;11.42;47.88
61337;BME280;47212;41.326;2.104;2023-02-05T22:28:15;102664.09;;;11.24;47.32
61337;BME280;47212;41.326;2.104;2023-02-05T22:33:17;102672.16;;;11.12;47.56
61337;BME280;47212;41.326;2.104;2023-02-05T22:38:19;102682.69;;;11.02;48.20
61337;BME280;47212;41.326;2.104;2023-02-05T22:43:21;102684.00;;;10.93;48.07
61337;BME280;47212;41.326;2.104;2023-02-05T22:48:23;102672.06;;;10.88;48.81
61337;BME280;47212;41.326;2.104;2023-02-05T22:53:25;102688.63;;;10.86;48.56
61337;BME280;47212;41.326;2.104;2023-02-05T22:58:29;102681.94;;;10.82;48.34
61337;BME280;47212;41.326;2.104;2023-02-05T23:03:31;102678.63;;;10.73;48.70
61337;BME280;47212;41.326;2.104;2023-02-05T23:08:33;102671.97;;;10.69;48.94
61337;BME280;47212;41.326;2.104;2023-02-05T23:13:38;102664.00;;;10.68;49.54
61337;BME280;47212;41.326;2.104;2023-02-05T23:18:41;102654.38;;;10.65;49.74
61337;BME280;47212;41.326;2.104;2023-02-05T23:23:46;102657.31;;;10.64;50.20
61337;BME280;47212;41.326;2.104;2023-02-05T23:28:49;102653.56;;;10.58;50.26
61337;BME280;47212;41.326;2.104;2023-02-05T23:33:52;102649.81;;;10.52;51.08
61337;BME280;47212;41.326;2.104;2023-02-05T23:38:55;102651.91;;;10.50;51.01
61337;BME280;47212;41.326;2.104;2023-02-05T23:43:57;102642.31;;;10.48;50.78
61337;BME280;47212;41.326;2.104;2023-02-05T23:49:00;102647.34;;;10.44;51.36
61337;BME280;47212;41.326;2.104;2023-02-05T23:54:04;102640.19;;;10.50;51.42
61337;BME280;47212;41.326;2.104;2023-02-05T23:59:10;102634.31;;;10.53;52.11
